createdAt,value
2022-12-29T00:01:09.625Z,6.16
2022-12-29T00:03:39.080Z,6.15
2022-12-29T00:06:08.814Z,6.17
2022-12-29T00:08:44.165Z,6.16
2022-12-29T00:11:16.209Z,6.11
2022-12-29T00:14:04.290Z,6.16
2022-12-29T00:16:34.738Z,6.12
2022-12-29T00:19:04.561Z,6.11
2022-12-29T00:21:51.749Z,6.10
2022-12-29T00:24:40.306Z,6.10
2022-12-29T00:27:31.866Z,6.12
2022-12-29T00:30:20.240Z,6.13
2022-12-29T00:33:07.366Z,6.12
2022-12-29T00:35:41.615Z,6.11
2022-12-29T00:38:30.155Z,6.13
2022-12-29T00:41:17.201Z,6.15
2022-12-29T00:44:05.162Z,6.15
2022-12-29T00:46:36.319Z,6.14
2022-12-29T00:49:23.865Z,6.09
2022-12-29T00:51:53.946Z,6.11
2022-12-29T00:54:23.325Z,6.10
2022-12-29T00:56:54.120Z,6.09
2022-12-29T00:59:25.321Z,6.11
2022-12-29T01:01:57.123Z,6.11
2022-12-29T01:04:28.898Z,6.08
2022-12-29T01:06:58.250Z,6.12
2022-12-29T01:09:45.318Z,6.10
2022-12-29T01:12:14.858Z,6.10
2022-12-29T01:14:44.550Z,6.12
2022-12-29T01:17:15.405Z,6.14
2022-12-29T01:19:45.105Z,6.16
2022-12-29T01:22:14.433Z,6.15
2022-12-29T01:24:44.092Z,6.13
2022-12-29T01:27:15.915Z,6.14
2022-12-29T01:29:45.599Z,6.09
2022-12-29T01:32:16.295Z,6.08
2022-12-29T01:34:47.992Z,6.06
2022-12-29T01:37:17.414Z,6.05
2022-12-29T01:39:47.900Z,6.08
2022-12-29T01:42:21.152Z,6.08
2022-12-29T01:44:54.231Z,6.10
2022-12-29T01:47:31.653Z,6.13
2022-12-29T01:50:07.311Z,6.09
2022-12-29T01:52:41.447Z,6.08
2022-12-29T01:55:13.109Z,6.08
2022-12-29T01:57:47.746Z,6.09
2022-12-29T02:00:18.223Z,6.08
2022-12-29T02:02:55.000Z,6.10
2022-12-29T02:05:31.323Z,6.05
2022-12-29T02:08:01.790Z,6.04
2022-12-29T02:10:35.229Z,6.03
2022-12-29T02:13:04.910Z,6.04
2022-12-29T02:15:48.839Z,6.07
2022-12-29T02:18:39.252Z,6.05
2022-12-29T02:21:48.232Z,6.06
2022-12-29T02:24:46.119Z,6.03
2022-12-29T02:27:51.297Z,6.00
2022-12-29T02:30:47.848Z,6.03
2022-12-29T02:33:29.823Z,6.03
2022-12-29T02:36:09.787Z,6.03
2022-12-29T02:38:52.782Z,6.05
2022-12-29T02:41:32.383Z,6.05
2022-12-29T02:44:09.932Z,6.04
2022-12-29T02:46:47.040Z,6.05
2022-12-29T02:49:22.263Z,6.03
2022-12-29T02:51:58.258Z,6.00
2022-12-29T02:54:42.455Z,6.01
2022-12-29T02:57:16.789Z,6.02
2022-12-29T02:59:50.489Z,6.02
2022-12-29T03:02:47.587Z,6.01
2022-12-29T03:05:36.061Z,6.01
2022-12-29T03:08:14.479Z,6.01
2022-12-29T03:10:50.483Z,5.96
2022-12-29T03:13:46.886Z,5.97
2022-12-29T03:16:23.638Z,5.97
2022-12-29T03:19:02.400Z,5.95
2022-12-29T03:21:55.571Z,5.92
2022-12-29T03:24:29.342Z,5.97
2022-12-29T03:27:03.444Z,5.94
2022-12-29T03:29:43.692Z,5.91
2022-12-29T03:32:17.184Z,5.90
2022-12-29T03:34:51.023Z,5.91
2022-12-29T03:37:24.530Z,5.90
2022-12-29T03:39:54.077Z,5.92
2022-12-29T03:42:26.303Z,5.89
2022-12-29T03:44:58.392Z,5.93
2022-12-29T03:47:28.638Z,5.92
2022-12-29T03:49:59.536Z,5.92
2022-12-29T03:52:29.258Z,5.94
2022-12-29T03:54:58.709Z,5.90
2022-12-29T03:57:28.522Z,5.89
2022-12-29T04:00:05.013Z,5.84
2022-12-29T04:02:44.522Z,5.77
2022-12-29T04:05:20.741Z,5.82
2022-12-29T04:07:52.144Z,5.80
2022-12-29T04:10:21.476Z,5.77
2022-12-29T04:12:54.791Z,5.77
2022-12-29T04:15:27.464Z,5.73
2022-12-29T04:17:57.533Z,5.70
2022-12-29T04:20:46.185Z,5.73
2022-12-29T04:23:16.111Z,5.70
2022-12-29T04:25:48.687Z,5.73
2022-12-29T04:28:19.234Z,5.74
2022-12-29T04:30:49.575Z,5.75
2022-12-29T04:33:23.431Z,5.74
2022-12-29T04:35:55.047Z,5.76
2022-12-29T04:38:26.545Z,5.77
2022-12-29T04:40:56.786Z,5.75
2022-12-29T04:43:27.261Z,5.77
2022-12-29T04:46:16.976Z,5.76
2022-12-29T04:49:14.180Z,5.75
2022-12-29T04:52:11.605Z,5.74
2022-12-29T04:54:41.953Z,5.76
2022-12-29T04:57:16.896Z,5.77
2022-12-29T04:59:52.495Z,5.76
2022-12-29T05:02:21.924Z,5.77
2022-12-29T05:04:53.538Z,5.78
2022-12-29T05:07:24.480Z,5.76
2022-12-29T05:09:54.701Z,5.77
2022-12-29T05:12:24.172Z,5.76
2022-12-29T05:15:01.603Z,5.75
2022-12-29T05:17:31.157Z,5.80
2022-12-29T05:20:01.816Z,5.78
2022-12-29T05:22:33.114Z,5.80
2022-12-29T05:25:03.071Z,5.84
2022-12-29T05:27:33.130Z,5.83
2022-12-29T05:30:20.890Z,5.82
2022-12-29T05:32:50.369Z,5.84
2022-12-29T05:35:21.243Z,5.85
2022-12-29T05:37:52.009Z,5.89
2022-12-29T05:40:21.908Z,5.91
2022-12-29T05:42:51.498Z,5.90
2022-12-29T05:45:39.317Z,5.90
2022-12-29T05:48:37.629Z,5.87
2022-12-29T05:51:22.916Z,5.83
2022-12-29T05:53:56.467Z,5.84
2022-12-29T05:56:26.501Z,5.84
2022-12-29T05:59:01.580Z,5.83
2022-12-29T06:01:31.554Z,5.86
2022-12-29T06:04:01.142Z,5.87
2022-12-29T06:06:31.172Z,5.89
2022-12-29T06:09:02.436Z,5.90
2022-12-29T06:11:32.472Z,5.88
2022-12-29T06:14:03.044Z,5.90
2022-12-29T06:16:32.996Z,5.90
2022-12-29T06:19:04.349Z,5.91
2022-12-29T06:21:34.631Z,5.90
2022-12-29T06:24:06.468Z,5.89
2022-12-29T06:26:38.119Z,5.91
2022-12-29T06:29:08.136Z,5.91
2022-12-29T06:31:37.810Z,5.85
2022-12-29T06:34:08.685Z,5.87
2022-12-29T06:36:39.971Z,5.88
2022-12-29T06:39:10.820Z,5.87
2022-12-29T06:41:40.674Z,5.86
2022-12-29T06:44:24.859Z,5.90
2022-12-29T06:47:00.140Z,5.92
2022-12-29T06:49:29.512Z,5.91
2022-12-29T06:52:01.793Z,5.90
2022-12-29T06:54:32.666Z,5.89
2022-12-29T06:57:03.623Z,5.89
2022-12-29T06:59:33.010Z,5.92
2022-12-29T07:02:03.464Z,5.92
2022-12-29T07:04:33.118Z,5.91
2022-12-29T07:07:03.173Z,5.94
2022-12-29T07:09:34.132Z,5.91
2022-12-29T07:12:04.023Z,5.94
2022-12-29T07:14:39.038Z,5.96
2022-12-29T07:17:12.474Z,5.98
2022-12-29T07:19:41.926Z,5.99
2022-12-29T07:22:12.734Z,5.99
2022-12-29T07:24:44.273Z,5.89
2022-12-29T07:27:14.177Z,5.98
2022-12-29T07:29:43.635Z,5.95
2022-12-29T07:32:13.362Z,6.03
2022-12-29T07:34:42.887Z,6.02
2022-12-29T07:37:12.474Z,6.04
2022-12-29T07:39:43.397Z,6.03
2022-12-29T07:42:13.153Z,6.02
2022-12-29T07:44:47.497Z,6.04
2022-12-29T07:47:34.264Z,6.07
2022-12-29T07:50:03.834Z,6.09
2022-12-29T07:52:33.504Z,6.09
2022-12-29T07:55:04.374Z,6.10
2022-12-29T07:57:34.134Z,6.13
2022-12-29T08:00:04.708Z,6.13
2022-12-29T08:02:41.524Z,6.18
2022-12-29T08:05:11.419Z,6.21
2022-12-29T08:07:40.993Z,6.18
2022-12-29T08:10:12.266Z,6.21
2022-12-29T08:12:43.457Z,6.22
2022-12-29T08:15:13.963Z,6.25
2022-12-29T08:17:43.703Z,6.27
2022-12-29T08:20:13.220Z,6.25
2022-12-29T08:22:43.580Z,6.28
2022-12-29T08:25:14.424Z,6.29
2022-12-29T08:27:44.112Z,6.32
2022-12-29T08:30:14.645Z,6.32
2022-12-29T08:32:44.354Z,6.33
2022-12-29T08:35:13.792Z,6.37
2022-12-29T08:37:43.668Z,6.39
2022-12-29T08:40:15.124Z,6.42
2022-12-29T08:42:45.518Z,6.43
2022-12-29T08:45:14.911Z,6.42
2022-12-29T08:47:45.065Z,6.41
2022-12-29T08:50:14.463Z,6.40
2022-12-29T08:52:44.126Z,6.41
2022-12-29T08:55:14.884Z,6.41
2022-12-29T08:57:44.689Z,6.42
2022-12-29T09:00:21.435Z,6.42
2022-12-29T09:02:51.326Z,6.43
2022-12-29T09:05:20.813Z,6.46
2022-12-29T09:07:50.458Z,6.46
2022-12-29T09:10:21.661Z,6.45
2022-12-29T09:12:51.435Z,6.48
2022-12-29T09:15:20.871Z,6.52
2022-12-29T09:17:50.628Z,6.51
2022-12-29T09:20:21.439Z,6.58
2022-12-29T09:22:51.524Z,6.61
2022-12-29T09:25:25.227Z,6.64
2022-12-29T09:27:55.477Z,6.67
2022-12-29T09:30:25.828Z,6.68
2022-12-29T09:32:56.351Z,6.71
2022-12-29T09:35:25.640Z,6.72
2022-12-29T09:37:55.255Z,6.76
2022-12-29T09:40:32.175Z,6.84
2022-12-29T09:43:26.397Z,6.84
2022-12-29T09:46:05.324Z,6.89
2022-12-29T09:48:39.685Z,6.91
2022-12-29T09:51:15.902Z,6.92
2022-12-29T09:53:48.855Z,6.91
2022-12-29T09:56:23.251Z,6.94
2022-12-29T09:59:00.199Z,6.99
2022-12-29T10:01:39.275Z,6.98
2022-12-29T10:04:09.698Z,7.02
2022-12-29T10:07:11.354Z,7.04
2022-12-29T10:09:45.651Z,7.05
2022-12-29T10:12:30.237Z,7.06
2022-12-29T10:15:14.550Z,7.09
2022-12-29T10:17:50.928Z,7.13
2022-12-29T10:20:31.169Z,7.13
2022-12-29T10:23:22.257Z,7.14
2022-12-29T10:25:54.537Z,7.17
2022-12-29T10:28:26.612Z,7.21
2022-12-29T10:31:05.127Z,7.23
2022-12-29T10:33:41.700Z,7.27
2022-12-29T10:36:19.242Z,7.31
2022-12-29T10:38:56.193Z,7.34
2022-12-29T10:41:31.508Z,7.32
2022-12-29T10:44:03.450Z,7.39
2022-12-29T10:46:38.469Z,7.44
2022-12-29T10:49:21.181Z,7.50
2022-12-29T10:51:57.096Z,7.50
2022-12-29T10:54:33.665Z,7.55
2022-12-29T10:57:08.100Z,7.58
2022-12-29T10:59:39.934Z,7.58
2022-12-29T11:02:37.112Z,7.62
2022-12-29T11:05:12.529Z,7.63
2022-12-29T11:07:42.517Z,7.64
2022-12-29T11:10:30.703Z,7.67
2022-12-29T11:13:03.965Z,7.70
2022-12-29T11:15:44.216Z,7.71
2022-12-29T11:18:25.987Z,7.77
2022-12-29T11:21:00.329Z,7.70
2022-12-29T11:23:34.609Z,7.76
2022-12-29T11:26:30.300Z,7.78
2022-12-29T11:29:25.790Z,7.77
2022-12-29T11:32:00.200Z,7.79
2022-12-29T11:34:34.977Z,7.84
2022-12-29T11:37:08.979Z,7.82
2022-12-29T11:39:43.486Z,7.88
2022-12-29T11:42:18.923Z,7.87
2022-12-29T11:44:51.427Z,7.89
2022-12-29T11:47:31.298Z,7.93
2022-12-29T11:50:02.635Z,7.88
2022-12-29T11:52:37.315Z,7.89
2022-12-29T11:55:18.823Z,7.91
2022-12-29T11:57:48.819Z,7.90
2022-12-29T12:00:20.379Z,7.90
2022-12-29T12:02:58.800Z,7.92
2022-12-29T12:05:37.625Z,7.94
2022-12-29T12:08:20.691Z,7.96
2022-12-29T12:10:58.762Z,7.94
2022-12-29T12:13:34.013Z,7.94
2022-12-29T12:16:10.402Z,7.92
2022-12-29T12:18:50.989Z,7.94
2022-12-29T12:21:28.655Z,7.94
2022-12-29T12:24:28.548Z,7.97
2022-12-29T12:27:03.932Z,7.94
2022-12-29T12:29:42.251Z,7.94
2022-12-29T12:32:19.325Z,7.99
2022-12-29T12:34:51.921Z,7.99
2022-12-29T12:37:54.993Z,7.97
2022-12-29T12:41:02.753Z,7.99
2022-12-29T12:43:49.639Z,7.99
2022-12-29T12:46:43.153Z,8.02
2022-12-29T12:49:48.294Z,8.00
2022-12-29T12:52:29.857Z,8.00
2022-12-29T12:55:14.495Z,8.01
2022-12-29T12:57:54.176Z,8.04
2022-12-29T13:00:25.239Z,8.00
2022-12-29T13:03:08.049Z,8.01
2022-12-29T13:05:56.581Z,8.03
2022-12-29T13:08:48.730Z,8.07
2022-12-29T13:11:27.336Z,8.04
2022-12-29T13:14:15.018Z,8.09
2022-12-29T13:16:53.663Z,8.06
2022-12-29T13:19:28.617Z,8.06
2022-12-29T13:22:07.686Z,8.06
2022-12-29T13:24:49.538Z,8.10
2022-12-29T13:27:26.035Z,8.24
2022-12-29T13:30:03.842Z,8.37
2022-12-29T13:32:45.503Z,8.52
2022-12-29T13:35:24.912Z,8.68
2022-12-29T13:37:59.002Z,8.76
2022-12-29T13:40:35.379Z,8.75
2022-12-29T13:43:10.900Z,8.68
2022-12-29T13:46:03.254Z,8.57
2022-12-29T13:48:44.143Z,8.53
2022-12-29T13:51:28.521Z,8.50
2022-12-29T13:54:20.489Z,8.44
2022-12-29T13:56:58.216Z,8.40
2022-12-29T13:59:41.825Z,8.38
2022-12-29T14:02:22.204Z,8.37
2022-12-29T14:05:03.382Z,8.36
2022-12-29T14:07:40.329Z,8.34
2022-12-29T14:10:30.952Z,8.32
2022-12-29T14:13:07.656Z,8.23
2022-12-29T14:15:43.490Z,8.23
2022-12-29T14:18:17.133Z,8.23
2022-12-29T14:20:56.771Z,8.20
2022-12-29T14:23:37.870Z,8.23
2022-12-29T14:26:16.295Z,8.21
2022-12-29T14:28:48.481Z,8.16
2022-12-29T14:31:42.937Z,8.17
2022-12-29T14:34:40.591Z,8.08
2022-12-29T14:37:30.854Z,8.10
2022-12-29T14:40:21.945Z,8.09
2022-12-29T14:42:59.483Z,8.02
2022-12-29T14:45:51.626Z,8.00
2022-12-29T14:48:49.801Z,8.00
2022-12-29T14:51:37.778Z,8.01
2022-12-29T14:54:54.072Z,7.94
2022-12-29T14:57:44.152Z,7.80
2022-12-29T15:00:35.223Z,7.86
2022-12-29T15:03:27.151Z,7.87
2022-12-29T15:06:09.739Z,7.85
2022-12-29T15:08:42.984Z,7.80
2022-12-29T15:11:17.464Z,7.82
2022-12-29T15:13:49.775Z,7.85
2022-12-29T15:16:27.422Z,7.82
2022-12-29T15:18:59.339Z,7.81
2022-12-29T15:21:33.256Z,7.80
2022-12-29T15:24:04.074Z,7.80
2022-12-29T15:26:41.141Z,7.82
2022-12-29T15:29:38.122Z,7.79
2022-12-29T15:32:21.615Z,7.75
2022-12-29T15:34:54.291Z,7.79
2022-12-29T15:37:26.625Z,7.78
2022-12-29T15:39:57.970Z,7.72
2022-12-29T15:42:52.770Z,7.76
2022-12-29T15:45:22.441Z,7.77
2022-12-29T15:47:57.362Z,7.78
2022-12-29T15:50:32.008Z,7.77
2022-12-29T15:53:02.687Z,7.79
2022-12-29T15:55:36.277Z,7.78
2022-12-29T15:58:19.754Z,7.80
2022-12-29T16:00:51.257Z,7.79
2022-12-29T16:03:21.840Z,7.76
2022-12-29T16:05:59.023Z,7.76
2022-12-29T16:08:34.845Z,7.74
2022-12-29T16:11:08.540Z,7.69
2022-12-29T16:13:42.283Z,7.67
2022-12-29T16:16:16.573Z,7.62
2022-12-29T16:18:51.853Z,7.61
2022-12-29T16:21:29.919Z,7.64
2022-12-29T16:24:05.236Z,7.63
2022-12-29T16:26:34.930Z,7.64
2022-12-29T16:29:08.701Z,7.61
2022-12-29T16:31:50.195Z,7.63
2022-12-29T16:34:27.137Z,7.63
2022-12-29T16:37:00.037Z,7.62
2022-12-29T16:39:47.574Z,7.62
2022-12-29T16:42:38.787Z,7.69
2022-12-29T16:45:54.384Z,7.70
2022-12-29T16:48:27.377Z,7.68
2022-12-29T16:51:05.640Z,7.73
2022-12-29T16:53:39.517Z,7.79
2022-12-29T16:56:16.834Z,7.84
2022-12-29T16:58:50.061Z,7.89
2022-12-29T17:01:20.865Z,7.91
2022-12-29T17:03:55.171Z,7.93
2022-12-29T17:06:25.535Z,7.98
2022-12-29T17:08:56.415Z,8.03
2022-12-29T17:11:51.278Z,8.05
2022-12-29T17:14:37.493Z,8.06
2022-12-29T17:17:12.558Z,8.03
2022-12-29T17:19:44.678Z,8.05
2022-12-29T17:22:17.580Z,8.06
2022-12-29T17:24:48.700Z,8.07
2022-12-29T17:27:25.937Z,8.07
2022-12-29T17:29:58.305Z,8.06
2022-12-29T17:32:28.334Z,8.05
2022-12-29T17:34:57.704Z,8.04
2022-12-29T17:37:34.551Z,8.05
2022-12-29T17:40:08.374Z,8.03
2022-12-29T17:42:45.716Z,8.03
2022-12-29T17:45:18.038Z,8.03
2022-12-29T17:47:47.734Z,8.03
2022-12-29T17:50:20.817Z,8.00
2022-12-29T17:52:55.321Z,8.05
2022-12-29T17:55:37.726Z,8.01
2022-12-29T17:58:20.252Z,8.03
2022-12-29T18:00:51.135Z,8.03
2022-12-29T18:03:23.484Z,8.03
2022-12-29T18:05:53.612Z,8.04
2022-12-29T18:08:23.531Z,8.02
2022-12-29T18:10:56.484Z,7.99
2022-12-29T18:13:33.698Z,7.97
2022-12-29T18:16:13.720Z,8.01
2022-12-29T18:18:43.597Z,7.98
2022-12-29T18:21:19.609Z,7.96
2022-12-29T18:23:49.822Z,7.93
2022-12-29T18:26:27.622Z,7.95
2022-12-29T18:28:57.867Z,7.96
2022-12-29T18:31:29.770Z,7.95
2022-12-29T18:34:01.614Z,7.92
2022-12-29T18:36:31.638Z,7.92
2022-12-29T18:39:01.027Z,7.93
2022-12-29T18:41:32.490Z,7.91
2022-12-29T18:44:02.094Z,7.92
2022-12-29T18:46:31.791Z,7.87
2022-12-29T18:49:01.264Z,7.89
2022-12-29T18:51:30.904Z,7.89
2022-12-29T18:54:03.092Z,7.90
2022-12-29T18:56:34.141Z,7.92
2022-12-29T18:59:03.556Z,7.92
2022-12-29T19:01:33.522Z,7.91
2022-12-29T19:04:03.083Z,7.92
2022-12-29T19:06:32.652Z,7.95
2022-12-29T19:09:02.290Z,7.95
2022-12-29T19:11:33.382Z,7.94
2022-12-29T19:14:03.281Z,7.97
2022-12-29T19:16:33.170Z,7.92
2022-12-29T19:19:10.210Z,7.94
2022-12-29T19:21:39.982Z,7.93
2022-12-29T19:24:09.575Z,7.95
2022-12-29T19:26:43.883Z,7.95
2022-12-29T19:29:16.823Z,7.96
2022-12-29T19:31:46.787Z,7.94
2022-12-29T19:34:17.103Z,7.94
2022-12-29T19:36:47.405Z,7.92
2022-12-29T19:39:17.114Z,7.89
2022-12-29T19:41:48.263Z,7.84
2022-12-29T19:44:19.647Z,7.80
2022-12-29T19:46:49.514Z,7.82
2022-12-29T19:49:19.131Z,7.83
2022-12-29T19:51:48.866Z,7.82
2022-12-29T19:54:18.146Z,7.80
2022-12-29T19:56:50.128Z,7.77
2022-12-29T19:59:20.237Z,7.79
2022-12-29T20:01:50.062Z,7.78
2022-12-29T20:04:19.575Z,7.78
2022-12-29T20:06:49.343Z,7.78
2022-12-29T20:09:19.002Z,7.75
2022-12-29T20:11:50.153Z,7.74
2022-12-29T20:14:19.730Z,7.73
2022-12-29T20:17:10.334Z,7.73
2022-12-29T20:19:41.674Z,7.71
2022-12-29T20:22:11.955Z,7.71
2022-12-29T20:24:46.718Z,7.68
2022-12-29T20:27:21.390Z,7.72
2022-12-29T20:29:50.937Z,7.71
2022-12-29T20:32:25.295Z,7.71
2022-12-29T20:34:55.978Z,7.69
2022-12-29T20:37:25.646Z,7.70
2022-12-29T20:39:55.218Z,7.67
2022-12-29T20:42:29.084Z,7.67
2022-12-29T20:45:02.101Z,7.66
2022-12-29T20:47:34.323Z,7.64
2022-12-29T20:50:04.336Z,7.63
2022-12-29T20:52:34.420Z,7.58
2022-12-29T20:55:04.561Z,7.58
2022-12-29T20:57:57.528Z,7.57
2022-12-29T21:00:26.023Z,7.59
2022-12-29T21:02:56.247Z,7.57
2022-12-29T21:05:27.595Z,7.60
2022-12-29T21:07:59.878Z,7.60
2022-12-29T21:10:29.282Z,7.59
2022-12-29T21:13:01.657Z,7.57
2022-12-29T21:15:33.234Z,7.60
2022-12-29T21:18:02.931Z,7.61
2022-12-29T21:20:32.697Z,7.63
2022-12-29T21:23:03.364Z,7.65
2022-12-29T21:25:38.081Z,7.67
2022-12-29T21:28:12.539Z,7.67
2022-12-29T21:30:43.284Z,7.67
2022-12-29T21:33:13.114Z,7.67
2022-12-29T21:35:43.351Z,7.65
2022-12-29T21:38:14.573Z,7.65
2022-12-29T21:40:44.782Z,7.66
2022-12-29T21:43:16.817Z,7.67
2022-12-29T21:45:51.270Z,7.71
2022-12-29T21:48:30.852Z,7.68
2022-12-29T21:51:37.936Z,7.69
2022-12-29T21:54:21.668Z,7.68
2022-12-29T21:56:52.308Z,7.70
2022-12-29T21:59:40.960Z,7.68
2022-12-29T22:02:37.302Z,7.70
2022-12-29T22:05:25.861Z,7.68
2022-12-29T22:08:12.878Z,7.73
2022-12-29T22:11:01.200Z,7.73
2022-12-29T22:13:33.637Z,7.76
2022-12-29T22:16:08.056Z,7.74
2022-12-29T22:18:38.090Z,7.78
2022-12-29T22:21:08.091Z,7.79
2022-12-29T22:23:39.012Z,7.79
2022-12-29T22:26:12.021Z,7.81
2022-12-29T22:28:43.662Z,7.85
2022-12-29T22:31:28.340Z,7.87
2022-12-29T22:34:01.437Z,7.90
2022-12-29T22:36:34.307Z,7.87
2022-12-29T22:39:03.784Z,7.90
2022-12-29T22:41:33.657Z,7.94
2022-12-29T22:44:05.096Z,7.94
2022-12-29T22:46:36.689Z,7.95
2022-12-29T22:49:06.206Z,7.95
2022-12-29T22:51:36.132Z,7.95
2022-12-29T22:54:05.851Z,7.90
2022-12-29T22:56:42.016Z,7.92
2022-12-29T22:59:13.036Z,7.93
2022-12-29T23:01:44.979Z,7.92
2022-12-29T23:04:59.100Z,7.89
2022-12-29T23:07:04.687Z,7.86
2022-12-29T23:09:34.316Z,7.91
2022-12-29T23:12:03.998Z,7.90
2022-12-29T23:14:33.468Z,7.92
2022-12-29T23:17:04.599Z,7.93
2022-12-29T23:19:33.957Z,7.93
2022-12-29T23:22:03.588Z,7.93
2022-12-29T23:24:32.999Z,7.92
2022-12-29T23:27:02.795Z,7.87
2022-12-29T23:29:32.642Z,7.80
2022-12-29T23:32:05.536Z,7.86
2022-12-29T23:34:34.970Z,7.83
2022-12-29T23:37:05.050Z,7.76
2022-12-29T23:39:34.457Z,7.77
2022-12-29T23:42:04.039Z,7.73
2022-12-29T23:44:33.356Z,7.69
2022-12-29T23:47:04.481Z,7.69
2022-12-29T23:49:33.908Z,7.60
2022-12-29T23:52:03.490Z,7.62
2022-12-29T23:54:32.981Z,7.59
2022-12-29T23:57:02.586Z,7.60
2022-12-29T23:59:31.932Z,7.56
